createdAt,value
2023-05-12T00:01:54.695Z,8.43
2023-05-12T00:05:04.789Z,8.26
2023-05-12T00:08:13.049Z,8.28
2023-05-12T00:11:21.584Z,8.17
2023-05-12T00:14:30.069Z,8.12
2023-05-12T00:17:38.548Z,8.21
2023-05-12T00:20:48.389Z,8.28
2023-05-12T00:23:57.080Z,8.33
2023-05-12T00:27:05.830Z,8.37
2023-05-12T00:30:14.894Z,8.43
2023-05-12T00:33:23.177Z,8.51
2023-05-12T00:36:33.508Z,8.37
2023-05-12T00:39:41.902Z,8.46
2023-05-12T00:42:50.926Z,8.48
2023-05-12T00:45:59.318Z,8.46
2023-05-12T00:49:08.507Z,8.44
2023-05-12T00:52:18.457Z,8.48
2023-05-12T00:55:27.808Z,8.44
2023-05-12T00:58:36.834Z,8.43
2023-05-12T01:01:45.975Z,8.45
2023-05-12T01:04:54.956Z,8.43
2023-05-12T01:08:05.875Z,8.38
2023-05-12T01:11:14.323Z,8.41
2023-05-12T01:14:22.843Z,8.30
2023-05-12T01:17:36.114Z,8.38
2023-05-12T01:20:48.997Z,8.29
2023-05-12T01:24:07.320Z,8.32
2023-05-12T01:27:18.596Z,8.32
2023-05-12T01:30:28.840Z,8.22
2023-05-12T01:33:38.313Z,8.17
2023-05-12T01:36:46.994Z,8.22
2023-05-12T01:39:55.772Z,8.21
2023-05-12T01:43:05.949Z,8.19
2023-05-12T01:46:14.806Z,8.05
2023-05-12T01:49:24.853Z,8.12
2023-05-12T01:52:33.439Z,8.02
2023-05-12T01:55:42.424Z,7.88
2023-05-12T01:58:52.479Z,7.75
2023-05-12T02:02:01.143Z,7.63
2023-05-12T02:05:12.591Z,7.50
2023-05-12T02:08:22.089Z,7.36
2023-05-12T02:11:30.677Z,7.26
2023-05-12T02:14:40.495Z,7.08
2023-05-12T02:17:50.366Z,7.01
2023-05-12T02:20:59.794Z,6.98
2023-05-12T02:24:08.492Z,6.93
2023-05-12T02:27:16.819Z,6.81
2023-05-12T02:30:26.690Z,6.79
2023-05-12T02:33:34.846Z,6.83
2023-05-12T02:36:43.480Z,6.90
2023-05-12T02:39:53.428Z,6.96
2023-05-12T02:43:01.963Z,7.09
2023-05-12T02:46:12.133Z,7.17
2023-05-12T02:49:21.416Z,7.24
2023-05-12T02:52:29.952Z,7.26
2023-05-12T02:55:38.561Z,7.43
2023-05-12T02:58:47.198Z,7.52
2023-05-12T03:01:58.164Z,7.56
2023-05-12T03:05:08.485Z,7.66
2023-05-12T03:08:18.003Z,7.66
2023-05-12T03:11:26.931Z,7.62
2023-05-12T03:14:35.547Z,7.68
2023-05-12T03:17:45.549Z,7.69
2023-05-12T03:20:54.130Z,7.70
2023-05-12T03:24:05.856Z,7.69
2023-05-12T03:27:14.458Z,7.71
2023-05-12T03:30:22.783Z,7.77
2023-05-12T03:33:35.987Z,7.78
2023-05-12T03:36:44.767Z,7.79
2023-05-12T03:39:56.334Z,7.82
2023-05-12T03:43:05.225Z,7.85
2023-05-12T03:46:13.871Z,7.86
2023-05-12T03:49:23.610Z,7.86
2023-05-12T03:52:31.896Z,7.88
2023-05-12T03:55:40.236Z,7.93
2023-05-12T03:58:48.532Z,8.01
2023-05-12T04:01:58.116Z,8.03
2023-05-12T04:05:10.161Z,8.00
2023-05-12T04:08:20.942Z,8.11
2023-05-12T04:11:29.606Z,8.16
2023-05-12T04:14:43.177Z,8.26
2023-05-12T04:17:52.138Z,8.34
2023-05-12T04:21:02.635Z,8.41
2023-05-12T04:24:11.974Z,8.46
2023-05-12T04:27:20.481Z,8.36
2023-05-12T04:30:28.741Z,8.41
2023-05-12T04:33:37.398Z,8.43
2023-05-12T04:36:48.582Z,8.61
2023-05-12T04:39:57.062Z,8.60
2023-05-12T04:43:08.028Z,8.59
2023-05-12T04:46:16.642Z,8.67
2023-05-12T04:49:25.177Z,8.68
2023-05-12T04:52:35.127Z,8.69
2023-05-12T04:55:45.865Z,8.77
2023-05-12T04:58:54.540Z,8.79
2023-05-12T05:02:03.631Z,8.88
2023-05-12T05:05:12.719Z,9.02
2023-05-12T05:08:24.642Z,9.10
2023-05-12T05:11:33.197Z,9.22
2023-05-12T05:14:41.513Z,9.42
2023-05-12T05:17:50.221Z,9.71
2023-05-12T05:20:59.559Z,10.03
2023-05-12T05:24:10.306Z,10.24
2023-05-12T05:27:18.734Z,10.50
2023-05-12T05:30:27.361Z,10.67
2023-05-12T05:33:35.811Z,10.85
2023-05-12T05:36:45.366Z,11.08
2023-05-12T05:39:55.401Z,11.32
2023-05-12T05:43:03.903Z,11.09
2023-05-12T05:46:12.349Z,11.06
2023-05-12T05:49:21.420Z,10.92
2023-05-12T05:52:29.832Z,10.88
2023-05-12T05:55:44.897Z,10.85
2023-05-12T05:58:55.755Z,10.74
2023-05-12T06:02:09.935Z,10.98
2023-05-12T06:05:19.598Z,11.15
2023-05-12T06:08:28.740Z,11.29
2023-05-12T06:11:39.579Z,11.52
2023-05-12T06:14:49.451Z,11.58
2023-05-12T06:17:58.366Z,11.93
2023-05-12T06:21:07.517Z,12.01
2023-05-12T06:24:16.361Z,11.91
2023-05-12T06:27:26.280Z,11.87
2023-05-12T06:30:35.104Z,12.06
2023-05-12T06:33:43.868Z,12.25
2023-05-12T06:36:55.142Z,12.50
2023-05-12T06:40:04.185Z,12.97
2023-05-12T06:43:15.005Z,12.92
2023-05-12T06:46:26.400Z,13.48
2023-05-12T06:49:38.138Z,14.06
2023-05-12T06:52:47.666Z,13.62
2023-05-12T06:55:56.532Z,13.78
2023-05-12T06:59:07.319Z,13.90
2023-05-12T07:02:16.974Z,13.75
2023-05-12T07:05:25.973Z,13.69
2023-05-12T07:08:34.490Z,14.02
2023-05-12T07:11:43.065Z,14.27
2023-05-12T07:14:53.019Z,14.65
2023-05-12T07:18:01.714Z,15.53
2023-05-12T07:21:10.706Z,16.02
2023-05-12T07:24:19.190Z,15.94
2023-05-12T07:27:27.658Z,15.54
2023-05-12T07:30:38.658Z,14.94
2023-05-12T07:33:47.276Z,14.46
2023-05-12T07:36:55.836Z,14.14
2023-05-12T07:40:04.766Z,13.68
2023-05-12T07:43:13.521Z,13.77
2023-05-12T07:46:24.090Z,14.56
2023-05-12T07:49:32.418Z,15.52
2023-05-12T07:52:49.275Z,16.25
2023-05-12T07:55:57.857Z,16.13
2023-05-12T07:59:06.381Z,15.56
2023-05-12T08:02:17.354Z,15.22
2023-05-12T08:05:25.941Z,15.13
2023-05-12T08:08:34.806Z,15.03
2023-05-12T08:11:46.593Z,14.94
2023-05-12T08:14:56.213Z,14.96
2023-05-12T08:18:06.606Z,14.80
2023-05-12T08:21:15.767Z,15.06
2023-05-12T08:24:24.233Z,15.81
2023-05-12T08:27:33.878Z,16.75
2023-05-12T08:30:42.531Z,18.18
2023-05-12T08:34:08.629Z,18.27
2023-05-12T08:37:18.354Z,18.00
2023-05-12T08:40:31.021Z,17.81
2023-05-12T08:43:44.378Z,16.24
2023-05-12T08:46:58.145Z,16.72
2023-05-12T08:50:11.629Z,16.15
2023-05-12T08:53:22.368Z,16.15
2023-05-12T08:59:45.812Z,14.81
2023-05-12T09:02:56.749Z,13.99
2023-05-12T09:06:11.088Z,13.93
2023-05-12T09:09:21.715Z,14.13
2023-05-12T09:12:38.025Z,13.82
2023-05-12T09:15:49.084Z,13.29
2023-05-12T09:19:03.981Z,13.85
2023-05-12T09:22:16.588Z,13.26
2023-05-12T09:25:25.236Z,12.96
2023-05-12T09:28:38.569Z,13.13
2023-05-12T09:31:51.909Z,12.98
2023-05-12T09:35:05.337Z,12.99
2023-05-12T09:38:16.118Z,13.03
2023-05-12T09:41:25.459Z,13.26
2023-05-12T09:44:34.185Z,13.43
2023-05-12T09:47:43.780Z,13.82
2023-05-12T09:50:54.093Z,13.47
2023-05-12T09:54:07.537Z,13.64
2023-05-12T09:57:19.506Z,13.85
2023-05-12T10:00:46.185Z,14.36
2023-05-12T10:04:00.628Z,14.86
2023-05-12T10:07:14.375Z,14.82
2023-05-12T10:10:27.898Z,15.11
2023-05-12T10:13:37.403Z,15.04
2023-05-12T10:16:47.550Z,15.07
2023-05-12T10:19:57.596Z,15.77
2023-05-12T10:23:08.723Z,15.78
2023-05-12T10:26:20.852Z,16.03
2023-05-12T10:29:33.029Z,16.55
2023-05-12T10:32:41.802Z,16.78
2023-05-12T10:35:50.376Z,16.96
2023-05-12T10:39:07.274Z,17.09
2023-05-12T10:42:25.374Z,17.26
2023-05-12T10:45:38.500Z,17.51
2023-05-12T10:48:59.746Z,17.76
2023-05-12T10:52:08.721Z,17.43
2023-05-12T10:55:19.588Z,17.82
2023-05-12T10:58:31.457Z,17.83
2023-05-12T11:01:41.440Z,16.91
2023-05-12T11:04:58.184Z,16.25
2023-05-12T11:08:09.433Z,15.69
2023-05-12T11:11:20.204Z,16.06
2023-05-12T11:14:31.353Z,16.74
2023-05-12T11:17:41.527Z,17.08
2023-05-12T11:20:51.514Z,16.22
2023-05-12T11:24:01.983Z,16.30
2023-05-12T11:27:16.993Z,15.31
2023-05-12T11:30:27.136Z,14.94
2023-05-12T11:33:35.511Z,15.14
2023-05-12T11:36:45.524Z,14.90
2023-05-12T11:39:54.299Z,14.88
2023-05-12T11:43:12.038Z,14.72
2023-05-12T11:46:28.660Z,15.03
2023-05-12T11:49:49.065Z,14.92
2023-05-12T11:52:58.510Z,14.94
2023-05-12T11:56:07.370Z,14.64
2023-05-12T11:59:26.437Z,15.36
2023-05-12T12:02:37.513Z,15.21
2023-05-12T12:05:59.731Z,15.48
2023-05-12T12:09:08.677Z,15.34
2023-05-12T12:12:17.116Z,16.05
2023-05-12T12:15:25.683Z,16.72
2023-05-12T12:18:36.020Z,17.08
2023-05-12T12:21:44.583Z,16.21
2023-05-12T12:24:52.791Z,16.98
2023-05-12T12:28:00.958Z,17.06
2023-05-12T12:31:09.718Z,17.48
2023-05-12T12:34:19.502Z,17.09
2023-05-12T12:37:28.273Z,16.61
2023-05-12T12:40:36.983Z,16.25
2023-05-12T12:43:45.748Z,16.41
2023-05-12T12:46:53.864Z,15.88
2023-05-12T12:50:03.627Z,15.34
2023-05-12T12:53:11.944Z,15.45
2023-05-12T12:56:20.703Z,15.38
2023-05-12T12:59:29.064Z,14.86
2023-05-12T13:02:37.863Z,14.80
2023-05-12T13:05:48.901Z,14.80
2023-05-12T13:08:58.313Z,14.46
2023-05-12T13:12:07.933Z,14.21
2023-05-12T13:15:19.257Z,14.20
2023-05-12T13:18:28.166Z,14.54
2023-05-12T13:21:37.827Z,14.78
2023-05-12T13:24:46.084Z,14.96
2023-05-12T13:27:54.775Z,14.86
2023-05-12T13:31:03.171Z,14.57
2023-05-12T13:34:11.664Z,14.85
2023-05-12T13:37:21.477Z,15.00
2023-05-12T13:40:30.569Z,14.82
2023-05-12T13:43:39.018Z,14.73
2023-05-12T13:46:47.333Z,15.12
2023-05-12T13:49:56.526Z,15.04
2023-05-12T13:53:07.838Z,14.73
2023-05-12T13:56:17.246Z,15.46
2023-05-12T13:59:25.532Z,15.72
2023-05-12T14:02:34.345Z,15.74
2023-05-12T14:05:42.590Z,15.32
2023-05-12T14:08:52.113Z,15.08
2023-05-12T14:12:00.590Z,15.67
2023-05-12T14:15:29.526Z,15.58
2023-05-12T14:18:39.413Z,16.15
2023-05-12T14:21:48.544Z,16.23
2023-05-12T14:24:58.185Z,16.84
2023-05-12T14:28:06.454Z,17.06
2023-05-12T14:31:14.741Z,15.65
2023-05-12T14:34:23.418Z,14.82
2023-05-12T14:37:32.734Z,14.42
2023-05-12T14:40:43.686Z,13.69
2023-05-12T14:43:51.846Z,13.52
2023-05-12T14:47:00.334Z,13.18
2023-05-12T14:50:09.390Z,12.96
2023-05-12T14:53:17.689Z,12.96
2023-05-12T14:56:27.147Z,12.94
2023-05-12T14:59:35.372Z,12.99
2023-05-12T15:02:45.552Z,13.08
2023-05-12T15:06:05.726Z,13.12
2023-05-12T15:09:14.392Z,13.10
2023-05-12T15:12:24.000Z,13.21
2023-05-12T15:15:33.010Z,13.31
2023-05-12T15:18:41.167Z,13.33
2023-05-12T15:21:49.381Z,13.43
2023-05-12T15:24:57.523Z,13.38
2023-05-12T15:28:07.603Z,13.28
2023-05-12T15:31:15.785Z,13.35
2023-05-12T15:34:23.884Z,13.26
2023-05-12T15:37:32.248Z,13.24
2023-05-12T15:40:40.709Z,13.25
2023-05-12T15:43:50.408Z,13.15
2023-05-12T15:46:59.511Z,13.06
2023-05-12T15:50:10.332Z,13.13
2023-05-12T15:53:18.916Z,13.00
2023-05-12T15:56:27.256Z,12.99
2023-05-12T15:59:37.934Z,13.08
2023-05-12T16:02:46.548Z,13.03
2023-05-12T16:05:56.321Z,13.00
2023-05-12T16:09:04.916Z,13.15
2023-05-12T16:12:15.356Z,13.11
2023-05-12T16:15:25.016Z,12.91
2023-05-12T16:18:33.625Z,13.02
2023-05-12T16:21:42.484Z,13.06
2023-05-12T16:24:50.655Z,13.02
2023-05-12T16:27:59.006Z,13.14
2023-05-12T16:31:08.490Z,13.04
2023-05-12T16:34:16.668Z,12.84
2023-05-12T16:37:26.431Z,12.84
2023-05-12T16:40:34.667Z,12.96
2023-05-12T16:43:42.952Z,12.92
2023-05-12T16:46:52.517Z,13.02
2023-05-12T16:50:00.667Z,12.96
2023-05-12T16:53:09.317Z,12.79
2023-05-12T16:56:17.554Z,12.72
2023-05-12T16:59:26.429Z,12.75
2023-05-12T17:02:36.525Z,12.79
2023-05-12T17:05:44.985Z,12.71
2023-05-12T17:08:53.100Z,12.70
2023-05-12T17:12:01.592Z,12.66
2023-05-12T17:15:11.910Z,12.51
2023-05-12T17:18:22.287Z,12.47
2023-05-12T17:21:31.334Z,12.45
2023-05-12T17:24:39.562Z,12.32
2023-05-12T17:27:49.218Z,12.21
2023-05-12T17:30:58.082Z,12.21
2023-05-12T17:34:07.630Z,12.25
2023-05-12T17:37:15.835Z,12.20
2023-05-12T17:40:24.520Z,12.13
2023-05-12T17:43:32.907Z,12.01
2023-05-12T17:46:41.530Z,11.96
2023-05-12T17:49:52.139Z,11.89
2023-05-12T17:53:00.515Z,11.75
2023-05-12T17:56:08.783Z,11.63
2023-05-12T17:59:17.091Z,11.56
2023-05-12T18:02:25.281Z,11.46
2023-05-12T18:05:35.972Z,11.39
2023-05-12T18:08:45.403Z,11.30
2023-05-12T18:11:56.705Z,11.24
2023-05-12T18:15:07.432Z,11.29
2023-05-12T18:18:16.171Z,11.31
2023-05-12T18:21:26.568Z,11.31
2023-05-12T18:24:35.634Z,11.19
2023-05-12T18:27:44.356Z,11.09
2023-05-12T18:30:54.557Z,11.06
2023-05-12T18:34:04.341Z,11.03
2023-05-12T18:37:15.498Z,11.01
2023-05-12T18:40:24.060Z,11.02
2023-05-12T18:43:32.323Z,10.97
2023-05-12T18:46:40.497Z,10.95
2023-05-12T18:49:48.813Z,10.91
2023-05-12T18:52:59.164Z,10.89
2023-05-12T18:56:07.292Z,10.82
2023-05-12T18:59:15.859Z,10.79
2023-05-12T19:02:23.988Z,10.74
2023-05-12T19:05:32.440Z,10.73
2023-05-12T19:08:46.361Z,10.74
2023-05-12T19:11:54.633Z,10.71
2023-05-12T19:15:03.258Z,10.73
2023-05-12T19:18:11.453Z,10.71
2023-05-12T19:21:19.801Z,10.76
2023-05-12T19:24:30.966Z,10.75
2023-05-12T19:27:39.718Z,10.67
2023-05-12T19:30:48.194Z,10.65
2023-05-12T19:33:56.646Z,10.64
2023-05-12T19:37:06.486Z,10.65
2023-05-12T19:40:16.671Z,10.69
2023-05-12T19:43:26.406Z,10.66
2023-05-12T19:46:34.879Z,10.67
2023-05-12T19:49:43.441Z,10.61
2023-05-12T19:52:52.467Z,10.55
2023-05-12T19:56:02.303Z,10.56
2023-05-12T19:59:10.586Z,10.53
2023-05-12T20:02:19.140Z,10.50
2023-05-12T20:05:27.351Z,10.43
2023-05-12T20:08:35.486Z,10.38
2023-05-12T20:11:45.673Z,10.31
2023-05-12T20:14:54.056Z,10.31
2023-05-12T20:18:02.727Z,10.32
2023-05-12T20:21:12.077Z,10.32
2023-05-12T20:24:20.266Z,10.26
2023-05-12T20:27:30.012Z,10.23
2023-05-12T20:30:38.864Z,10.25
2023-05-12T20:33:47.356Z,10.27
2023-05-12T20:36:55.873Z,10.29
2023-05-12T20:40:05.381Z,10.33
2023-05-12T20:43:15.022Z,10.27
2023-05-12T20:46:23.338Z,10.27
2023-05-12T20:49:31.642Z,10.24
2023-05-12T20:52:41.166Z,10.24
2023-05-12T20:55:49.983Z,10.17
2023-05-12T20:58:59.986Z,10.12
2023-05-12T21:02:08.937Z,10.08
2023-05-12T21:05:17.969Z,10.08
2023-05-12T21:08:27.161Z,10.09
2023-05-12T21:11:36.073Z,10.11
2023-05-12T21:14:46.972Z,10.15
2023-05-12T21:17:55.503Z,10.15
2023-05-12T21:21:03.823Z,10.06
2023-05-12T21:24:12.171Z,10.15
2023-05-12T21:27:20.873Z,10.15
2023-05-12T21:30:30.467Z,10.17
2023-05-12T21:33:38.966Z,10.18
2023-05-12T21:36:47.637Z,10.20
2023-05-12T21:40:03.496Z,10.16
2023-05-12T21:43:16.137Z,10.16
2023-05-12T21:46:25.830Z,10.07
2023-05-12T21:49:34.200Z,10.02
2023-05-12T21:52:42.762Z,10.00
2023-05-12T21:55:51.189Z,10.00
2023-05-12T21:58:59.651Z,9.91
2023-05-12T22:02:09.541Z,9.88
2023-05-12T22:05:18.188Z,9.94
2023-05-12T22:08:26.738Z,9.91
2023-05-12T22:11:35.094Z,10.09
2023-05-12T22:14:43.464Z,10.02
2023-05-12T22:17:53.260Z,9.95
2023-05-12T22:21:01.985Z,9.94
2023-05-12T22:24:11.190Z,9.83
2023-05-12T22:27:22.169Z,9.81
2023-05-12T22:30:30.542Z,9.83
2023-05-12T22:33:40.148Z,9.84
2023-05-12T22:36:49.209Z,9.88
2023-05-12T22:39:57.524Z,9.85
2023-05-12T22:43:06.789Z,9.77
2023-05-12T22:46:14.959Z,9.74
2023-05-12T22:49:25.053Z,9.77
2023-05-12T22:52:33.398Z,9.74
2023-05-12T22:55:41.621Z,9.76
2023-05-12T22:58:49.802Z,9.74
2023-05-12T23:01:58.052Z,9.77
2023-05-12T23:05:09.021Z,9.79
2023-05-12T23:08:17.198Z,9.78
2023-05-12T23:11:25.832Z,9.78
2023-05-12T23:14:34.404Z,9.81
2023-05-12T23:17:43.012Z,9.79
2023-05-12T23:20:52.950Z,9.64
2023-05-12T23:24:04.326Z,9.64
2023-05-12T23:27:12.609Z,9.56
2023-05-12T23:30:21.796Z,9.53
2023-05-12T23:33:30.997Z,9.50
2023-05-12T23:36:40.766Z,9.51
2023-05-12T23:39:49.241Z,9.54
2023-05-12T23:42:57.362Z,9.52
2023-05-12T23:46:06.013Z,9.54
2023-05-12T23:49:14.441Z,9.46
2023-05-12T23:52:24.246Z,9.50
2023-05-12T23:55:32.356Z,9.51
2023-05-12T23:58:40.650Z,9.42
